Accueil
METAR-TAF:

METAR-TAF

Aéroports :

Brize Norton, Angleterre

latitude: 51-45N, longitude: 001-35W, altitude: 88 m

Observation

Le bulletin a été fait il y a 47 minutes, à 00:50 UTC
Vent 4 kt de ouest
Température 13°C
Humidité 82%
Pression 1014 hPa
Visibilité 10 km ou plus
pas de nuages en-dessous de 1500 mètres et pas de cumulonimbus.

METAR: EGVN 170050Z 27004KT CAVOK 13/10 Q1014 NOSIG

Heure: 02:37 (01:37 UTC)

Prévision

Le bulletin a été fait il y a 3 heures et 12 minutes, à 22:25 UTC
Prévision valable du 17 à 00 UTC au 17 à 24 UTC
Vent 8 kt de ouest/sud-ouest
Visibilité 10 km ou plus
Quelques nuages à une hauteur de 4500 ft

TAF: EGVN 162225Z 1700/1724 25008KT 9999 FEW045

Observations et prévisions météorologiques de plus de 4000 aéroports (messages METAR et TAF).

Les stations disponibles sont représentées par des disques jaunes et rouges sur la carte.

Passer la souris dessus pour voir le nom de la station.

Cliquer dessus pour voir les observations et prévisions météorologiques.

Pour changer de carte: cliquez sur les boutons verts avec une croix noire pour zoomer, sur le bouton vert avec un tiret pour effectuer un zoom arrière, ou sur les flèches vertes pour les cartes adjacentes.


METAR-TAF: